Pagrindinis puslapis
METAR-TAF:

METAR-TAF

Oro uostai :

Konija, Turkija

platuma: 37-58N, ilguma: 032-33E, Aukštis: 1032 m

Dabartinis oras

Ataskaita buvo paskelbta 21 minutes, ne 05:50 UTC
Vėjas 3 kt iš Pietų/Pietvakarių, svyruoja nuo Pietryčių ir Vakarų
Temperatūra -1°C
Drėgmė 86%
Slėgis 1022 hPa
Matomumas: 4000 m
Su prošvaistėmis ne aukštis 900 ft
rūkana

METAR: LTAN 070550Z 20003KT 140V280 4000 BR BKN009 M01/M03 Q1022 NOSIG

Laikas: 09:11 (06:11 UTC)

Prognozė

Ataskaita buvo paskelbta 1 valandą ir 31 minutes, ne 04:40 UTC
Prognozė galioja nuo 07 metu 06 UTC su 07 metu 15 UTC
Vėjas 5 kt iš Pietų
Matomumas: 3500 m
Su prošvaistėmis ne aukštis 800 ft
rūkana
Tapsmas
nuo 07 metu 07 UTC su 07 metu 10 UTC
Matomumas 10 km arba daugiau
Išsisklaidę debesys ne aukštis 2000 ft

TAF: LTAN 070440Z 0706/0715 18005KT 3500 BR BKN008 BECMG 0707/0710 9999 NSW SCT020

Orai ataskaitas ir orų prognozės (METAR, TAF).

turimą stotys yra geltonos ir raudonos taškus žemėlapyje.

Perkelti pele per norėdami pamatyti stoties vardą.

Tada spustelėkite, norėdami matyti oro stebėjimo ir prognozės.

Norėdami pakeisti žemėlapį: spustelėkite ant žalios mygtukų su juodo kryžiaus žemyn,; žalią mygtuką su brūkšneliu, jei norite nutolinti; arba žalių rodyklių gretimoms žemėlapius.


METAR-TAF: